Time;durP1;ratioP1;P1;durP2;ratioP2;P2;SDS_P1;SDS_P2;PMS_P1;PMS_P2;Temp;Humidity;BMP_temperature;BMP_pressure;BME280_temperature;BME280_humidity;BME280_pressure;Samples;Min_cycle;Max_cycle;Signal;HPM_P1;HPM_P2
2021/03/17 00:00:11;;;;;;;;;;;13.10;41.30;;;;;;4951307;28;77807;-66
2021/03/17 00:02:37;;;;;;;;;;;13.10;41.20;;;;;;4953099;28;75073;-66
2021/03/17 00:05:03;;;;;;;;;;;13.10;41.40;;;;;;4953012;28;75293;-66
2021/03/17 00:07:29;;;;;;;;;;;13.00;41.40;;;;;;4952501;28;76022;-65
2021/03/17 00:09:54;;;;;;;;;;;13.00;41.10;;;;;;4952618;28;75798;-65
2021/03/17 00:12:20;;;;;;;;;;;13.00;41.40;;;;;;4952694;28;74590;-63
2021/03/17 00:14:45;;;;;;;;;;;13.00;41.50;;;;;;4952705;28;75779;-64
2021/03/17 00:17:11;;;;;;;;;;;12.90;41.50;;;;;;4950945;28;78315;-65
2021/03/17 00:19:36;;;;;;;;;;;12.90;41.90;;;;;;4952889;28;75196;-68
2021/03/17 00:22:02;;;;;;;;;;;12.90;41.40;;;;;;4953075;28;76625;-63
2021/03/17 00:24:28;;;;;;;;;;;12.90;41.70;;;;;;4951564;28;74894;-64
2021/03/17 00:26:53;;;;;;;;;;;12.90;42.00;;;;;;4952505;28;74938;-67
2021/03/17 00:29:19;;;;;;;;;;;12.90;42.20;;;;;;4952140;28;76394;-64
2021/03/17 00:31:44;;;;;;;;;;;12.80;42.00;;;;;;4952582;28;75049;-66
2021/03/17 00:34:10;;;;;;;;;;;12.80;41.90;;;;;;4950668;28;78318;-63
2021/03/17 00:36:35;;;;;;;;;;;12.70;41.90;;;;;;4952989;28;74527;-67
2021/03/17 00:39:02;;;;;;;;;;;12.70;42.50;;;;;;4952556;28;74579;-67
2021/03/17 00:41:27;;;;;;;;;;;12.70;42.30;;;;;;4951155;28;75334;-67
2021/03/17 00:43:53;;;;;;;;;;;12.70;42.60;;;;;;4953048;28;74484;-62
2021/03/17 00:46:18;;;;;;;;;;;12.60;42.70;;;;;;4952109;28;75425;-65
2021/03/17 00:48:44;;;;;;;;;;;12.50;42.50;;;;;;4951704;28;75689;-65
2021/03/17 00:51:09;;;;;;;;;;;12.50;42.90;;;;;;4952895;28;75152;-66
2021/03/17 00:53:35;;;;;;;;;;;12.50;43.00;;;;;;4950981;28;78427;-66
2021/03/17 00:56:01;;;;;;;;;;;12.50;43.00;;;;;;4952345;28;74802;-67
2021/03/17 00:58:26;;;;;;;;;;;12.40;43.50;;;;;;4951743;28;76229;-63
2021/03/17 01:00:53;;;;;;;;;;;12.40;43.10;;;;;;4951390;28;96300;-66
2021/03/17 01:03:19;;;;;;;;;;;12.40;43.10;;;;;;4951679;28;76374;-65
2021/03/17 01:05:44;;;;;;;;;;;12.40;43.40;;;;;;4951709;28;74717;-66
2021/03/17 01:08:11;;;;;;;;;;;12.40;43.60;;;;;;4952221;28;75162;-68
2021/03/17 01:10:38;;;;;;;;;;;12.40;43.90;;;;;;4951107;28;76949;-66
2021/03/17 01:13:04;;;;;;;;;;;12.40;43.50;;;;;;4952084;28;75104;-65
2021/03/17 01:15:30;;;;;;;;;;;12.40;43.70;;;;;;4951957;28;76518;-64
2021/03/17 01:17:55;;;;;;;;;;;12.40;44.00;;;;;;4952084;28;75145;-65
2021/03/17 01:20:23;;;;;;;;;;;12.30;44.10;;;;;;4952152;28;74896;-65
2021/03/17 01:22:49;;;;;;;;;;;12.20;44.20;;;;;;4950506;28;76540;-65
2021/03/17 01:25:17;;;;;;;;;;;12.20;45.00;;;;;;4952074;28;75201;-65
2021/03/17 01:27:43;;;;;;;;;;;12.10;45.10;;;;;;4951635;28;75384;-65
2021/03/17 01:30:09;;;;;;;;;;;12.10;45.20;;;;;;4950653;28;77753;-64
2021/03/17 01:32:34;;;;;;;;;;;12.10;44.70;;;;;;4951796;28;75235;-64
2021/03/17 01:35:00;;;;;;;;;;;12.00;45.00;;;;;;4952204;28;75605;-65
2021/03/17 01:37:26;;;;;;;;;;;12.00;44.50;;;;;;4951781;28;74502;-63
2021/03/17 01:39:51;;;;;;;;;;;12.00;45.00;;;;;;4951891;28;75208;-65
2021/03/17 01:42:17;;;;;;;;;;;12.00;44.60;;;;;;4951334;28;76425;-67
2021/03/17 01:44:43;;;;;;;;;;;12.00;44.80;;;;;;4951673;28;75459;-66
2021/03/17 01:47:08;;;;;;;;;;;11.90;45.00;;;;;;4951471;28;75155;-65
2021/03/17 01:49:34;;;;;;;;;;;11.90;44.90;;;;;;4949935;28;78202;-65
2021/03/17 01:51:59;;;;;;;;;;;11.90;45.20;;;;;;4951613;28;75244;-64
2021/03/17 01:54:25;;;;;;;;;;;11.90;45.80;;;;;;4951341;28;75492;-65
2021/03/17 01:56:51;;;;;;;;;;;11.90;45.30;;;;;;4951465;28;75355;-65
2021/03/17 01:59:16;;;;;;;;;;;11.90;45.20;;;;;;4950643;28;77020;-69
2021/03/17 02:01:42;;;;;;;;;;;11.90;45.30;;;;;;4950998;28;76219;-64
2021/03/17 02:04:07;;;;;;;;;;;11.80;45.70;;;;;;4951463;28;75143;-65
2021/03/17 02:06:33;;;;;;;;;;;11.90;45.40;;;;;;4949539;28;78123;-66
2021/03/17 02:08:59;;;;;;;;;;;11.80;45.90;;;;;;4950875;28;75387;-63
2021/03/17 02:11:24;;;;;;;;;;;11.80;45.50;;;;;;4951609;28;74387;-65
2021/03/17 02:14:09;;;;;;;;;;;11.70;45.70;;;;;;4949787;28;75519;-64
2021/03/17 02:16:37;;;;;;;;;;;11.70;46.10;;;;;;4951030;28;75301;-65
2021/03/17 02:19:06;;;;;;;;;;;11.70;45.80;;;;;;4965917;28;76709;-61
2021/03/17 02:21:34;;;;;;;;;;;11.70;46.00;;;;;;4951275;28;74953;-64
2021/03/17 02:24:18;;;;;;;;;;;11.70;46.10;;;;;;4951230;28;75040;-64
2021/03/17 02:26:52;;;;;;;;;;;11.70;45.90;;;;;;4951490;28;74385;-64
2021/03/17 02:29:21;;;;;;;;;;;11.60;46.60;;;;;;4949515;28;77092;-65
2021/03/17 02:31:55;;;;;;;;;;;11.60;46.20;;;;;;4950924;28;75363;-63
2021/03/17 02:34:26;;;;;;;;;;;11.60;46.50;;;;;;4951206;28;74417;-65
2021/03/17 02:37:05;;;;;;;;;;;11.60;46.10;;;;;;4949535;28;74540;-65
2021/03/17 02:39:36;;;;;;;;;;;11.50;46.10;;;;;;4950025;28;76478;-65
2021/03/17 02:42:11;;;;;;;;;;;11.50;47.10;;;;;;4949099;28;75521;-65
2021/03/17 02:44:43;;;;;;;;;;;11.50;46.50;;;;;;4950960;28;75192;-63
2021/03/17 02:47:08;;;;;;;;;;;11.50;46.40;;;;;;4949392;28;74569;-69
2021/03/17 02:49:36;;;;;;;;;;;11.50;46.40;;;;;;4951406;28;74635;-63
2021/03/17 02:52:02;;;;;;;;;;;11.50;46.40;;;;;;4949467;28;76632;-65
2021/03/17 02:54:29;;;;;;;;;;;11.50;46.40;;;;;;4948805;28;75775;-62
2021/03/17 02:57:06;;;;;;;;;;;11.50;46.60;;;;;;4949093;28;75424;-65
2021/03/17 02:59:32;;;;;;;;;;;11.50;46.80;;;;;;4950585;28;75302;-65
2021/03/17 03:01:59;;;;;;;;;;;11.40;46.70;;;;;;4950790;28;75244;-62
2021/03/17 03:04:25;;;;;;;;;;;11.40;47.20;;;;;;4948749;28;77740;-64
2021/03/17 03:06:53;;;;;;;;;;;11.40;46.80;;;;;;4949113;28;75856;-65
2021/03/17 03:09:20;;;;;;;;;;;11.40;47.40;;;;;;4950653;28;74566;-65
2021/03/17 03:11:46;;;;;;;;;;;11.40;47.20;;;;;;4948927;28;75499;-66
2021/03/17 03:14:12;;;;;;;;;;;11.40;47.20;;;;;;4950893;28;75059;-68
2021/03/17 03:16:39;;;;;;;;;;;11.40;47.00;;;;;;4948781;28;75535;-68
2021/03/17 03:19:07;;;;;;;;;;;11.40;47.20;;;;;;4950550;28;74466;-66
2021/03/17 03:21:34;;;;;;;;;;;11.40;47.00;;;;;;4947314;28;75404;-65
2021/03/17 03:24:00;;;;;;;;;;;11.40;46.90;;;;;;4948883;28;76592;-67
2021/03/17 03:26:25;;;;;;;;;;;11.40;47.30;;;;;;4950351;28;75432;-65
2021/03/17 03:28:52;;;;;;;;;;;11.40;47.20;;;;;;4950728;28;74906;-67
2021/03/17 03:31:18;;;;;;;;;;;11.40;47.30;;;;;;4948533;28;77685;-67
2021/03/17 03:33:44;;;;;;;;;;;11.40;47.50;;;;;;4948794;28;76048;-66
2021/03/17 03:36:10;;;;;;;;;;;11.40;47.50;;;;;;4950061;28;75191;-66
2021/03/17 03:38:35;;;;;;;;;;;11.30;47.30;;;;;;4950582;28;74596;-68
2021/03/17 03:41:01;;;;;;;;;;;11.20;47.40;;;;;;4950215;28;75247;-65
2021/03/17 03:43:27;;;;;;;;;;;11.30;47.40;;;;;;4948880;28;76833;-66
2021/03/17 03:45:53;;;;;;;;;;;11.20;47.50;;;;;;4950219;28;75512;-63
2021/03/17 03:48:18;;;;;;;;;;;11.20;47.70;;;;;;4950068;28;74999;-66
2021/03/17 03:50:46;;;;;;;;;;;11.20;47.80;;;;;;4948412;28;75307;-65
2021/03/17 03:53:15;;;;;;;;;;;11.10;47.80;;;;;;4948345;28;78058;-63
2021/03/17 03:55:40;;;;;;;;;;;11.10;47.70;;;;;;4948031;28;74642;-63
2021/03/17 03:58:07;;;;;;;;;;;11.20;47.90;;;;;;4949486;28;75541;-65
2021/03/17 04:00:33;;;;;;;;;;;11.10;47.90;;;;;;4948137;28;77301;-67
2021/03/17 04:03:00;;;;;;;;;;;11.10;48.10;;;;;;4948067;28;76092;-68
2021/03/17 04:05:29;;;;;;;;;;;11.10;47.80;;;;;;4948135;28;76324;-67
2021/03/17 04:07:56;;;;;;;;;;;11.10;47.80;;;;;;4948127;28;74774;-65
2021/03/17 04:10:22;;;;;;;;;;;11.10;47.80;;;;;;4948653;28;75564;-69
2021/03/17 04:12:48;;;;;;;;;;;11.10;48.10;;;;;;4948227;28;75490;-65
2021/03/17 04:15:16;;;;;;;;;;;11.00;48.00;;;;;;4948422;28;75476;-66
2021/03/17 04:17:48;;;;;;;;;;;11.10;47.70;;;;;;4948021;28;76375;-67
2021/03/17 04:20:16;;;;;;;;;;;11.00;48.80;;;;;;4949224;28;74544;-68
2021/03/17 04:22:43;;;;;;;;;;;11.00;48.20;;;;;;4949708;28;75260;-67
2021/03/17 04:25:10;;;;;;;;;;;11.00;48.20;;;;;;4949800;28;75623;-64
2021/03/17 04:27:36;;;;;;;;;;;11.00;48.10;;;;;;4947603;28;77649;-66
2021/03/17 04:30:03;;;;;;;;;;;11.00;48.90;;;;;;4947887;28;77289;-67
2021/03/17 04:32:29;;;;;;;;;;;11.00;48.30;;;;;;4950010;28;75143;-66
2021/03/17 04:34:55;;;;;;;;;;;11.00;48.40;;;;;;4951047;28;75596;-66
2021/03/17 04:37:21;;;;;;;;;;;11.00;48.90;;;;;;4952528;28;74527;-64
2021/03/17 04:39:48;;;;;;;;;;;11.00;48.50;;;;;;4952214;28;75088;-64
2021/03/17 04:42:14;;;;;;;;;;;11.00;48.90;;;;;;4952500;28;75040;-66
2021/03/17 04:44:40;;;;;;;;;;;11.00;48.60;;;;;;4952358;28;75244;-65
2021/03/17 04:47:06;;;;;;;;;;;11.00;48.80;;;;;;4950646;28;75598;-67
2021/03/17 04:49:32;;;;;;;;;;;11.00;49.30;;;;;;4952424;28;75844;-62
2021/03/17 04:51:59;;;;;;;;;;;10.90;49.00;;;;;;4950487;28;77111;-63
2021/03/17 04:54:26;;;;;;;;;;;10.90;48.70;;;;;;4952311;28;75098;-65
2021/03/17 04:56:52;;;;;;;;;;;10.90;48.80;;;;;;4952636;28;74570;-65
2021/03/17 04:59:20;;;;;;;;;;;10.90;48.80;;;;;;4952043;28;75248;-64
2021/03/17 05:01:46;;;;;;;;;;;11.00;48.90;;;;;;4950824;28;77133;-64
2021/03/17 05:04:12;;;;;;;;;;;10.90;48.80;;;;;;4951998;28;75185;-64
2021/03/17 05:06:39;;;;;;;;;;;10.90;49.20;;;;;;4952232;28;75817;-65
2021/03/17 05:09:05;;;;;;;;;;;10.90;49.00;;;;;;4951333;28;77585;-65
2021/03/17 05:11:31;;;;;;;;;;;11.00;49.10;;;;;;4950863;28;77738;-65
2021/03/17 05:13:57;;;;;;;;;;;10.90;48.90;;;;;;4952248;28;75097;-62
2021/03/17 05:16:24;;;;;;;;;;;11.00;49.20;;;;;;4952010;28;75651;-65
2021/03/17 05:18:50;;;;;;;;;;;10.90;49.10;;;;;;4952569;28;75704;-63
2021/03/17 05:21:16;;;;;;;;;;;10.90;49.30;;;;;;4950580;28;77721;-63
2021/03/17 05:23:43;;;;;;;;;;;10.90;49.70;;;;;;4952521;28;75270;-64
2021/03/17 05:26:08;;;;;;;;;;;10.90;49.50;;;;;;4952375;28;76456;-65
2021/03/17 05:28:34;;;;;;;;;;;10.90;49.70;;;;;;4952424;28;76301;-66
2021/03/17 05:31:00;;;;;;;;;;;10.90;49.60;;;;;;4951417;28;76349;-65
2021/03/17 05:33:26;;;;;;;;;;;10.90;49.60;;;;;;4952988;28;74894;-64
2021/03/17 05:35:52;;;;;;;;;;;10.90;50.00;;;;;;4951302;28;76417;-62
2021/03/17 05:38:18;;;;;;;;;;;10.90;50.20;;;;;;4952513;28;75445;-67
2021/03/17 05:40:44;;;;;;;;;;;10.80;50.00;;;;;;4952593;28;75193;-65
2021/03/17 05:43:09;;;;;;;;;;;10.80;49.80;;;;;;4952605;28;75335;-65
2021/03/17 05:45:36;;;;;;;;;;;10.80;50.00;;;;;;4950701;28;76064;-66
2021/03/17 05:48:02;;;;;;;;;;;10.80;50.00;;;;;;4952009;28;74577;-68
2021/03/17 05:50:28;;;;;;;;;;;10.70;50.20;;;;;;4966349;28;75422;-65
2021/03/17 05:52:53;;;;;;;;;;;10.70;50.50;;;;;;4950328;28;76911;-66
2021/03/17 05:55:19;;;;;;;;;;;10.70;51.10;;;;;;4951425;28;75232;-66
2021/03/17 05:57:45;;;;;;;;;;;10.70;50.40;;;;;;4949897;28;76238;-62
2021/03/17 06:00:11;;;;;;;;;;;10.70;50.50;;;;;;4951558;28;76733;-66
2021/03/17 06:02:37;;;;;;;;;;;10.70;50.30;;;;;;4951291;28;76471;-66
2021/03/17 06:05:06;;;;;;;;;;;10.70;51.10;;;;;;4950368;28;77927;-61
2021/03/17 06:07:43;;;;;;;;;;;10.70;51.20;;;;;;4949694;28;78037;-64
2021/03/17 06:10:09;;;;;;;;;;;10.70;51.30;;;;;;4951885;28;74431;-64
2021/03/17 06:12:36;;;;;;;;;;;10.70;51.10;;;;;;4952048;28;75392;-66
2021/03/17 06:15:02;;;;;;;;;;;10.70;51.30;;;;;;4951447;28;74657;-65
2021/03/17 06:17:28;;;;;;;;;;;10.70;50.80;;;;;;4951363;28;75032;-62
2021/03/17 06:20:05;;;;;;;;;;;10.70;51.30;;;;;;4951382;28;74502;-65
2021/03/17 06:22:31;;;;;;;;;;;10.70;51.20;;;;;;4949662;28;78289;-65
2021/03/17 06:24:57;;;;;;;;;;;10.70;51.50;;;;;;4951019;28;74559;-65
2021/03/17 06:27:23;;;;;;;;;;;10.70;51.50;;;;;;4951075;28;75189;-65
2021/03/17 06:29:49;;;;;;;;;;;10.60;51.70;;;;;;4951482;28;75189;-67
2021/03/17 06:32:15;;;;;;;;;;;10.60;52.00;;;;;;4949282;28;77862;-65
2021/03/17 06:34:44;;;;;;;;;;;10.60;51.90;;;;;;4951529;28;76652;-68
2021/03/17 06:37:10;;;;;;;;;;;10.70;52.00;;;;;;4949508;28;77282;-65
2021/03/17 06:39:36;;;;;;;;;;;10.70;51.80;;;;;;4950873;28;76366;-66
2021/03/17 06:42:02;;;;;;;;;;;10.70;51.90;;;;;;4949133;28;78478;-67
2021/03/17 06:44:29;;;;;;;;;;;10.70;51.70;;;;;;4950983;28;75022;-66
2021/03/17 06:47:11;;;;;;;;;;;10.70;51.60;;;;;;4951139;28;74614;-68
2021/03/17 06:49:37;;;;;;;;;;;10.70;52.10;;;;;;4950653;28;75191;-66
2021/03/17 06:52:38;;;;;;;;;;;10.80;52.20;;;;;;4949322;28;78247;-67
2021/03/17 06:55:04;;;;;;;;;;;10.80;51.60;;;;;;4948110;28;75506;-65
2021/03/17 06:57:30;;;;;;;;;;;10.80;51.60;;;;;;4945256;28;76268;-65
2021/03/17 07:00:15;;;;;;;;;;;10.90;51.50;;;;;;4951153;28;75713;-65
2021/03/17 07:02:41;;;;;;;;;;;10.90;51.90;;;;;;4949106;28;77375;-64
2021/03/17 07:05:07;;;;;;;;;;;10.90;51.80;;;;;;4950470;28;75105;-67
2021/03/17 07:07:45;;;;;;;;;;;10.90;51.80;;;;;;4950257;28;74647;-65
2021/03/17 07:10:11;;;;;;;;;;;11.00;51.40;;;;;;4950742;28;74528;-65
2021/03/17 07:12:36;;;;;;;;;;;11.00;51.60;;;;;;4950518;28;75135;-63
2021/03/17 07:15:08;;;;;;;;;;;11.10;51.90;;;;;;4951026;28;75352;-64
2021/03/17 07:17:34;;;;;;;;;;;11.10;52.20;;;;;;4950060;28;76369;-63
2021/03/17 07:20:01;;;;;;;;;;;11.20;51.60;;;;;;4950144;28;75227;-62
2021/03/17 07:22:27;;;;;;;;;;;11.20;51.70;;;;;;4950488;28;75811;-64
2021/03/17 07:24:55;;;;;;;;;;;11.20;51.70;;;;;;4950724;28;75112;-67
2021/03/17 07:27:21;;;;;;;;;;;11.30;51.90;;;;;;4950192;28;74662;-62
2021/03/17 07:29:59;;;;;;;;;;;11.30;51.60;;;;;;4950266;28;75075;-65
2021/03/17 07:32:28;;;;;;;;;;;11.30;52.10;;;;;;4950446;28;75454;-62
2021/03/17 07:34:54;;;;;;;;;;;11.30;51.60;;;;;;4950296;28;75202;-65
2021/03/17 07:37:26;;;;;;;;;;;11.40;51.80;;;;;;4949908;28;76245;-65
2021/03/17 07:39:53;;;;;;;;;;;11.40;51.60;;;;;;4949753;28;75187;-62
2021/03/17 07:42:20;;;;;;;;;;;11.40;51.80;;;;;;4950506;28;75160;-65
2021/03/17 07:44:46;;;;;;;;;;;11.40;51.80;;;;;;4948731;28;76923;-70
2021/03/17 07:47:12;;;;;;;;;;;11.50;51.90;;;;;;4949489;28;77386;-71
2021/03/17 07:49:45;;;;;;;;;;;11.50;51.50;;;;;;4950214;28;75150;-72
2021/03/17 07:52:30;;;;;;;;;;;11.60;51.80;;;;;;4949864;28;75348;-72
2021/03/17 07:55:01;;;;;;;;;;;11.70;51.80;;;;;;4949776;28;74868;-72
2021/03/17 07:57:28;;;;;;;;;;;11.70;51.80;;;;;;4950024;28;75666;-71
2021/03/17 07:59:55;;;;;;;;;;;11.70;51.80;;;;;;4948428;28;75223;-69
2021/03/17 08:02:21;;;;;;;;;;;11.80;51.20;;;;;;4950051;28;75510;-72
2021/03/17 08:04:47;;;;;;;;;;;11.80;52.00;;;;;;4949863;28;75142;-72
2021/03/17 08:07:13;;;;;;;;;;;11.80;51.40;;;;;;4948565;28;76974;-72
2021/03/17 08:09:39;;;;;;;;;;;11.90;51.70;;;;;;4951213;28;78131;-72
2021/03/17 08:12:08;;;;;;;;;;;11.90;51.40;;;;;;4952729;28;75409;-75
2021/03/17 08:14:35;;;;;;;;;;;12.00;51.10;;;;;;4952862;28;75091;-72
2021/03/17 08:17:00;;;;;;;;;;;12.00;51.30;;;;;;4951313;28;77786;-71
2021/03/17 08:19:27;;;;;;;;;;;12.10;51.20;;;;;;4952420;28;74790;-72
2021/03/17 08:21:54;;;;;;;;;;;12.20;50.50;;;;;;4952541;28;75190;-71
2021/03/17 08:24:40;;;;;;;;;;;12.20;50.80;;;;;;4951110;28;77259;-72
2021/03/17 08:27:06;;;;;;;;;;;12.40;50.90;;;;;;4950777;28;77413;-72
2021/03/17 08:29:45;;;;;;;;;;;12.40;51.20;;;;;;4953303;28;74476;-72
2021/03/17 08:32:12;;;;;;;;;;;12.40;50.40;;;;;;4951070;28;75437;-71
2021/03/17 08:34:38;;;;;;;;;;;12.50;50.40;;;;;;4951158;28;75430;-72
2021/03/17 08:37:08;;;;;;;;;;;12.60;50.00;;;;;;4950749;28;76091;-72
2021/03/17 08:39:33;;;;;;;;;;;12.60;50.30;;;;;;4952553;28;75021;-71
2021/03/17 08:42:02;;;;;;;;;;;12.70;50.20;;;;;;4953083;28;74527;-74
2021/03/17 08:44:29;;;;;;;;;;;12.70;50.00;;;;;;4952578;28;74669;-72
2021/03/17 08:46:56;;;;;;;;;;;12.80;50.40;;;;;;4950758;28;75759;-71
2021/03/17 08:49:37;;;;;;;;;;;12.90;49.90;;;;;;4950918;28;76159;-71
2021/03/17 08:52:04;;;;;;;;;;;12.90;49.60;;;;;;4950837;28;76521;-71
2021/03/17 08:54:32;;;;;;;;;;;13.00;49.80;;;;;;4950240;28;76349;-72
2021/03/17 08:56:58;;;;;;;;;;;13.10;49.60;;;;;;4951092;28;77516;-72
2021/03/17 08:59:37;;;;;;;;;;;13.10;49.20;;;;;;4950933;28;74632;-71
2021/03/17 09:02:03;;;;;;;;;;;13.20;49.10;;;;;;4950923;28;76630;-72
2021/03/17 09:04:48;;;;;;;;;;;13.20;49.00;;;;;;4952882;28;74464;-72
2021/03/17 09:07:14;;;;;;;;;;;13.30;48.50;;;;;;4952212;28;75303;-72
2021/03/17 09:09:49;;;;;;;;;;;13.40;48.70;;;;;;4950847;28;74658;-72
2021/03/17 09:12:16;;;;;;;;;;;13.50;48.00;;;;;;4950670;28;77632;-71
2021/03/17 09:14:42;;;;;;;;;;;13.60;48.00;;;;;;4952322;28;75687;-72
2021/03/17 09:17:13;;;;;;;;;;;13.70;47.60;;;;;;4950502;28;77110;-71
2021/03/17 09:19:54;;;;;;;;;;;13.80;47.40;;;;;;4951012;28;75095;-73
2021/03/17 09:22:38;;;;;;;;;;;13.90;47.40;;;;;;4950682;28;77374;-72
2021/03/17 09:25:23;;;;;;;;;;;14.00;47.10;;;;;;4952138;28;75214;-71
2021/03/17 09:27:56;;;;;;;;;;;14.20;47.00;;;;;;4952253;28;75315;-71
2021/03/17 09:30:23;;;;;;;;;;;14.40;46.40;;;;;;4950344;28;75614;-70
2021/03/17 09:32:49;;;;;;;;;;;14.60;46.20;;;;;;4950552;28;77342;-71
2021/03/17 09:35:16;;;;;;;;;;;14.90;45.60;;;;;;4949929;28;77311;-71
2021/03/17 09:37:43;;;;;;;;;;;15.00;45.10;;;;;;4950459;28;76447;-72
2021/03/17 09:40:12;;;;;;;;;;;15.20;44.70;;;;;;4952215;28;74465;-72
2021/03/17 09:42:37;;;;;;;;;;;15.40;44.40;;;;;;4952030;28;74734;-71
2021/03/17 09:45:05;;;;;;;;;;;15.50;43.80;;;;;;4951887;28;75206;-71
2021/03/17 09:47:31;;;;;;;;;;;15.70;43.50;;;;;;4949978;28;77467;-71
2021/03/17 09:49:57;;;;;;;;;;;15.80;43.10;;;;;;4950291;28;77210;-73
2021/03/17 09:52:23;;;;;;;;;;;16.00;42.80;;;;;;4952122;28;74572;-70
2021/03/17 09:54:49;;;;;;;;;;;16.20;42.60;;;;;;4950312;28;75573;-72
2021/03/17 09:57:15;;;;;;;;;;;16.40;42.30;;;;;;4952390;28;74464;-71
2021/03/17 09:59:42;;;;;;;;;;;16.60;41.90;;;;;;4950651;28;76410;-73
2021/03/17 10:02:14;;;;;;;;;;;16.80;41.20;;;;;;4950609;28;78043;-73
2021/03/17 10:04:44;;;;;;;;;;;16.90;41.30;;;;;;4951944;28;75285;-72
2021/03/17 10:07:28;;;;;;;;;;;17.10;40.30;;;;;;4951947;28;75211;-70
2021/03/17 10:09:55;;;;;;;;;;;17.30;41.00;;;;;;4950195;28;78608;-71
2021/03/17 10:12:22;;;;;;;;;;;17.50;40.20;;;;;;4950501;28;77025;-69
2021/03/17 10:15:10;;;;;;;;;;;17.70;40.20;;;;;;4951273;28;75165;-71
2021/03/17 10:17:36;;;;;;;;;;;17.90;39.70;;;;;;4947176;28;78635;-70
2021/03/17 10:20:12;;;;;;;;;;;18.00;39.50;;;;;;4951525;28;75702;-72
2021/03/17 10:22:38;;;;;;;;;;;18.30;39.00;;;;;;4950107;28;77853;-74
2021/03/17 10:25:09;;;;;;;;;;;18.50;38.60;;;;;;4951026;28;74533;-71
2021/03/17 10:27:40;;;;;;;;;;;18.70;37.80;;;;;;4950877;28;75270;-71
2021/03/17 10:30:14;;;;;;;;;;;18.90;37.50;;;;;;4949073;28;76292;-71
2021/03/17 10:32:41;;;;;;;;;;;19.00;36.70;;;;;;4950216;28;77351;-71
2021/03/17 10:35:11;;;;;;;;;;;19.30;36.80;;;;;;4951338;28;74426;-71
2021/03/17 10:37:37;;;;;;;;;;;19.50;36.30;;;;;;4949703;28;75462;-72
2021/03/17 10:40:13;;;;;;;;;;;19.70;35.50;;;;;;4951306;28;75294;-71
2021/03/17 10:42:47;;;;;;;;;;;20.00;35.80;;;;;;4951381;28;75335;-71
2021/03/17 10:45:17;;;;;;;;;;;20.40;35.30;;;;;;4949591;28;75510;-72
2021/03/17 10:47:44;;;;;;;;;;;20.70;34.50;;;;;;4951488;28;75290;-71
2021/03/17 10:50:11;;;;;;;;;;;21.00;33.90;;;;;;4951423;28;75131;-71
2021/03/17 10:52:41;;;;;;;;;;;21.50;33.80;;;;;;4950281;28;76153;-71
2021/03/17 10:55:07;;;;;;;;;;;22.00;33.20;;;;;;4951181;28;75021;-72
2021/03/17 10:57:33;;;;;;;;;;;22.50;32.10;;;;;;4949373;28;78660;-72
2021/03/17 11:00:09;;;;;;;;;;;23.00;31.90;;;;;;4949694;28;75621;-72
2021/03/17 11:02:35;;;;;;;;;;;23.50;31.10;;;;;;4951212;28;75883;-71
2021/03/17 11:05:10;;;;;;;;;;;23.90;30.60;;;;;;4949527;28;77187;-71
2021/03/17 11:07:50;;;;;;;;;;;24.30;29.70;;;;;;4948961;28;76349;-72
2021/03/17 11:10:33;;;;;;;;;;;24.70;29.10;;;;;;4950804;28;75222;-72
2021/03/17 11:13:19;;;;;;;;;;;25.30;28.50;;;;;;4948877;28;77724;-71
2021/03/17 11:15:46;;;;;;;;;;;25.70;27.10;;;;;;4949201;28;75482;-72
2021/03/17 11:18:21;;;;;;;;;;;26.20;26.70;;;;;;4949401;28;77118;-71
2021/03/17 11:20:47;;;;;;;;;;;26.50;26.80;;;;;;4949169;28;75440;-72
2021/03/17 11:23:20;;;;;;;;;;;27.30;26.10;;;;;;4949122;28;75312;-71
2021/03/17 11:25:47;;;;;;;;;;;28.20;25.30;;;;;;4949202;28;77297;-71
2021/03/17 11:28:17;;;;;;;;;;;29.20;24.30;;;;;;4950525;28;75733;-72
2021/03/17 11:30:48;;;;;;;;;;;30.00;23.70;;;;;;4950223;28;75225;-71
2021/03/17 11:33:14;;;;;;;;;;;30.80;22.80;;;;;;4948742;28;77665;-72
2021/03/17 11:35:40;;;;;;;;;;;31.40;21.00;;;;;;4950164;28;75214;-72
2021/03/17 11:38:06;;;;;;;;;;;31.90;21.40;;;;;;4948799;28;76345;-72
2021/03/17 11:40:32;;;;;;;;;;;32.70;20.90;;;;;;4950174;28;75730;-72
2021/03/17 11:43:08;;;;;;;;;;;33.00;20.30;;;;;;4949161;28;74943;-72
2021/03/17 11:45:34;;;;;;;;;;;33.50;20.30;;;;;;4950258;28;75182;-71
2021/03/17 11:48:00;;;;;;;;;;;34.50;19.70;;;;;;4948441;28;75481;-72
2021/03/17 11:50:25;;;;;;;;;;;34.90;19.10;;;;;;4948745;28;75152;-72
2021/03/17 11:52:52;;;;;;;;;;;35.40;18.70;;;;;;4950475;28;74433;-74
2021/03/17 11:55:18;;;;;;;;;;;36.40;18.10;;;;;;4932486;28;76878;-74
2021/03/17 11:57:44;;;;;;;;;;;36.80;18.00;;;;;;4964451;28;75833;-71
2021/03/17 12:00:10;;;;;;;;;;;37.20;16.90;;;;;;4950475;28;75084;-75
2021/03/17 12:02:35;;;;;;;;;;;36.60;17.40;;;;;;4950060;28;75180;-73
2021/03/17 12:05:01;;;;;;;;;;;37.30;17.50;;;;;;4964635;28;78263;-73
2021/03/17 12:07:28;;;;;;;;;;;37.90;17.10;;;;;;4949756;28;76607;-74
2021/03/17 12:09:55;;;;;;;;;;;38.50;16.00;;;;;;4948173;28;77079;-74
2021/03/17 12:12:21;;;;;;;;;;;38.30;17.00;;;;;;4948230;28;78688;-71
2021/03/17 12:14:46;;;;;;;;;;;39.20;16.30;;;;;;4948634;28;76542;-72
2021/03/17 12:17:13;;;;;;;;;;;40.00;16.00;;;;;;4949408;28;75554;-73
2021/03/17 12:19:38;;;;;;;;;;;40.70;15.50;;;;;;4950103;28;75193;-73
2021/03/17 12:22:04;;;;;;;;;;;40.90;15.50;;;;;;4947871;28;74568;-72
2021/03/17 12:24:30;;;;;;;;;;;41.10;15.10;;;;;;4948009;28;76425;-76
2021/03/17 12:26:55;;;;;;;;;;;40.10;15.40;;;;;;4949672;28;74382;-72
2021/03/17 12:29:21;;;;;;;;;;;37.50;16.90;;;;;;4949396;28;75565;-71
2021/03/17 12:31:46;;;;;;;;;;;35.70;18.40;;;;;;4950155;28;74424;-72
2021/03/17 12:34:12;;;;;;;;;;;34.20;18.40;;;;;;4947507;28;78337;-72
2021/03/17 12:36:37;;;;;;;;;;;34.50;19.30;;;;;;4949554;28;75640;-72
2021/03/17 12:39:04;;;;;;;;;;;36.00;18.10;;;;;;4949128;28;74474;-74
2021/03/17 12:41:29;;;;;;;;;;;36.90;17.30;;;;;;4947787;28;76426;-72
2021/03/17 12:43:55;;;;;;;;;;;37.10;17.10;;;;;;4949409;28;75541;-73
2021/03/17 12:46:21;;;;;;;;;;;36.90;17.10;;;;;;4949409;28;75201;-74
2021/03/17 12:48:46;;;;;;;;;;;37.70;16.90;;;;;;4947762;28;75260;-73
2021/03/17 12:51:12;;;;;;;;;;;37.50;16.00;;;;;;4949124;28;74850;-74
2021/03/17 12:53:38;;;;;;;;;;;35.70;18.00;;;;;;4948499;28;77486;-73
2021/03/17 12:56:04;;;;;;;;;;;34.90;18.20;;;;;;4952052;28;74967;-72
2021/03/17 12:58:30;;;;;;;;;;;34.70;18.90;;;;;;4950940;28;76410;-72
2021/03/17 13:00:56;;;;;;;;;;;34.10;18.10;;;;;;4950676;28;75598;-72
2021/03/17 13:03:21;;;;;;;;;;;33.60;19.10;;;;;;4952022;28;76872;-72
2021/03/17 13:05:47;;;;;;;;;;;34.00;18.50;;;;;;4950753;28;75304;-72
2021/03/17 13:08:13;;;;;;;;;;;35.20;18.20;;;;;;4950362;28;77192;-74
2021/03/17 13:10:39;;;;;;;;;;;35.40;18.10;;;;;;4951894;28;75078;-71
2021/03/17 13:13:04;;;;;;;;;;;36.00;17.10;;;;;;4950632;28;75354;-71
2021/03/17 13:15:30;;;;;;;;;;;36.50;17.00;;;;;;4950575;28;75392;-72
2021/03/17 13:17:56;;;;;;;;;;;35.90;17.10;;;;;;4951842;28;75121;-72
2021/03/17 13:20:22;;;;;;;;;;;35.50;17.30;;;;;;4951728;28;74613;-72
2021/03/17 13:22:48;;;;;;;;;;;36.00;17.30;;;;;;4952278;28;74519;-71
2021/03/17 13:25:14;;;;;;;;;;;37.10;16.20;;;;;;4951445;28;75073;-72
2021/03/17 13:27:40;;;;;;;;;;;37.80;16.10;;;;;;4951851;28;75804;-72
2021/03/17 13:30:07;;;;;;;;;;;38.50;15.30;;;;;;4950382;28;76929;-72
2021/03/17 13:32:33;;;;;;;;;;;38.30;15.50;;;;;;4950532;28;75990;-71
2021/03/17 13:34:58;;;;;;;;;;;38.90;15.90;;;;;;4951867;28;75123;-72
2021/03/17 13:37:24;;;;;;;;;;;39.90;14.40;;;;;;4949924;28;74492;-72
2021/03/17 13:39:50;;;;;;;;;;;38.50;15.30;;;;;;4950430;28;75093;-72
2021/03/17 13:42:16;;;;;;;;;;;37.20;16.80;;;;;;4951860;28;74557;-72
2021/03/17 13:44:41;;;;;;;;;;;38.80;14.70;;;;;;4951809;28;74926;-73
2021/03/17 13:47:07;;;;;;;;;;;39.20;14.20;;;;;;4950393;28;76923;-73
2021/03/17 13:49:33;;;;;;;;;;;37.40;16.20;;;;;;4950396;28;76372;-72
2021/03/17 13:51:58;;;;;;;;;;;36.40;16.40;;;;;;4950533;28;75654;-72
2021/03/17 13:54:24;;;;;;;;;;;35.60;16.20;;;;;;4950014;28;77756;-73
2021/03/17 13:56:49;;;;;;;;;;;35.40;16.30;;;;;;4951503;28;75164;-72
2021/03/17 13:59:15;;;;;;;;;;;37.20;16.20;;;;;;4951426;28;75790;-73
2021/03/17 14:01:41;;;;;;;;;;;39.60;15.20;;;;;;4951555;28;75237;-72
2021/03/17 14:04:06;;;;;;;;;;;41.20;13.00;;;;;;4951558;28;75778;-73
2021/03/17 14:06:32;;;;;;;;;;;41.40;13.70;;;;;;4949218;28;77363;-73
2021/03/17 14:08:57;;;;;;;;;;;40.50;13.80;;;;;;4949975;28;77623;-74
2021/03/17 14:11:23;;;;;;;;;;;39.50;13.30;;;;;;4951228;28;74511;-72
2021/03/17 14:13:49;;;;;;;;;;;39.00;14.00;;;;;;4950179;28;74615;-73
2021/03/17 14:16:14;;;;;;;;;;;38.10;14.10;;;;;;4949800;28;76255;-73
2021/03/17 14:18:40;;;;;;;;;;;38.60;14.80;;;;;;4949992;28;75436;-72